Time;durP1;ratioP1;P1;durP2;ratioP2;P2;SDS_P1;SDS_P2;PMS_P1;PMS_P2;Temp;Humidity;BMP_temperature;BMP_pressure;BME280_temperature;BME280_humidity;BME280_pressure;Samples;Min_cycle;Max_cycle;Signal;HPM_P1;HPM_P2
2023/06/22 00:00:46;;;;;;;8.52;4.75;;;;;;;20.74;100.00;100746.28;4968628;28;20033;-72
2023/06/22 00:03:12;;;;;;;7.88;5.70;;;;;;;21.43;100.00;100848.69;4999716;28;20058;-73
2023/06/22 00:05:37;;;;;;;10.43;5.80;;;;;;;21.37;100.00;100822.16;5016066;28;20069;-72
2023/06/22 00:08:06;;;;;;;6.70;5.55;;;;;;;20.58;100.00;100730.84;4975886;28;20057;-72
2023/06/22 00:10:32;;;;;;;10.95;5.32;;;;;;;21.32;100.00;100849.97;4981449;28;20050;-71
2023/06/22 00:12:57;;;;;;;8.63;5.72;;;;;;;21.33;100.00;100854.38;4981113;28;20045;-71
2023/06/22 00:15:23;;;;;;;10.75;5.38;;;;;;;21.34;100.00;100857.00;4986182;28;20355;-70
2023/06/22 00:17:49;;;;;;;9.07;5.60;;;;;;;20.41;100.00;100720.75;4985546;28;20482;-70
2023/06/22 00:20:17;;;;;;;8.88;5.80;;;;;;;20.51;100.00;100723.06;4985838;28;20074;-71
2023/06/22 00:22:42;;;;;;;8.63;4.90;;;;;;;20.72;100.00;100759.69;4983821;28;20471;-71
2023/06/22 00:25:08;;;;;;;9.23;5.28;;;;;;;21.13;100.00;100845.31;4985855;28;20132;-70
2023/06/22 00:27:35;;;;;;;7.05;5.07;;;;;;;21.02;100.00;100851.03;4984892;28;20027;-71
2023/06/22 00:30:02;;;;;;;6.78;4.80;;;;;;;21.05;100.00;100826.06;4987215;28;20042;-70
2023/06/22 00:32:29;;;;;;;7.82;4.97;;;;;;;20.72;100.00;100750.78;4986711;28;20509;-72
2023/06/22 00:34:55;;;;;;;13.77;7.70;;;;;;;21.14;100.00;100830.19;4981241;28;20465;-71
2023/06/22 00:37:25;;;;;;;8.95;5.68;;;;;;;20.67;100.00;100750.97;4986267;28;20035;-73
2023/06/22 00:39:51;;;;;;;7.53;5.18;;;;;;;21.04;100.00;100814.50;4979205;28;20042;-72
2023/06/22 00:42:17;;;;;;;9.00;6.40;;;;;;;20.40;100.00;100708.34;4985981;28;20039;-70
2023/06/22 00:44:43;;;;;;;9.63;6.53;;;;;;;21.08;100.00;100812.59;4986306;28;20096;-70
2023/06/22 00:47:09;;;;;;;7.85;5.65;;;;;;;20.95;100.00;100808.63;4985856;28;20422;-70
2023/06/22 00:49:35;;;;;;;8.57;6.80;;;;;;;20.39;100.00;100761.72;4986095;28;20046;-70
2023/06/22 00:52:00;;;;;;;8.77;6.75;;;;;;;20.63;100.00;100798.22;4985403;28;20653;-71
2023/06/22 00:54:28;;;;;;;8.63;5.60;;;;;;;20.50;100.00;100793.34;4986908;28;20134;-74
2023/06/22 00:56:56;;;;;;;9.95;6.28;;;;;;;19.85;100.00;100683.63;5017609;28;20125;-74
2023/06/22 00:59:22;;;;;;;9.50;5.93;;;;;;;20.68;100.00;100830.06;4986324;28;20166;-73
2023/06/22 01:01:47;;;;;;;7.00;5.68;;;;;;;20.32;100.00;100738.84;4983628;28;20121;-75
2023/06/22 01:04:13;;;;;;;6.85;5.53;;;;;;;20.06;100.00;100699.81;4986296;28;20050;-73
2023/06/22 01:06:52;;;;;;;7.47;5.32;;;;;;;20.49;100.00;100732.97;4987550;28;20031;-74
2023/06/22 01:09:31;;;;;;;8.73;5.88;;;;;;;20.94;100.00;100823.78;4987684;28;20034;-73
2023/06/22 01:12:07;;;;;;;8.77;5.32;;;;;;;20.59;100.00;100804.56;4998528;28;20117;-75
2023/06/22 01:14:43;;;;;;;8.35;5.70;;;;;;;20.27;100.00;100736.34;4985310;28;20046;-74
2023/06/22 01:17:12;;;;;;;10.32;6.95;;;;;;;20.72;100.00;100817.47;4986441;28;20512;-74
2023/06/22 01:19:43;;;;;;;8.50;5.70;;;;;;;20.70;100.00;100824.66;4988212;28;20726;-74
2023/06/22 01:22:12;;;;;;;7.80;5.80;;;;;;;20.11;100.00;100717.38;4983999;28;20050;-72
2023/06/22 01:24:44;;;;;;;8.02;5.28;;;;;;;20.04;100.00;100699.84;4989373;28;20034;-76
2023/06/22 01:27:31;;;;;;;11.60;7.03;;;;;;;20.64;100.00;100826.59;4993325;28;20038;-74
2023/06/22 01:30:00;;;;;;;10.75;6.40;;;;;;;20.73;100.00;100825.44;4989448;28;20062;-73
2023/06/22 01:32:35;;;;;;;8.70;6.22;;;;;;;20.17;100.00;100727.81;4989198;28;20495;-73
2023/06/22 01:35:04;;;;;;;8.18;5.43;;;;;;;20.09;100.00;100723.66;4984414;28;20056;-73
2023/06/22 01:37:32;;;;;;;9.48;5.90;;;;;;;20.66;100.00;100823.91;4987509;28;20587;-73
2023/06/22 01:39:58;;;;;;;8.10;5.63;;;;;;;20.06;100.00;100735.31;4989342;28;20046;-73
2023/06/22 01:42:25;;;;;;;7.32;4.82;;;;;;;20.17;100.00;100769.59;4989446;28;20034;-74
2023/06/22 01:44:53;;;;;;;7.93;5.95;;;;;;;20.23;100.00;100809.38;4984264;28;20679;-76
2023/06/22 01:47:20;;;;;;;11.90;6.00;;;;;;;19.41;100.00;100680.66;4989286;28;20046;-74
2023/06/22 01:49:46;;;;;;;13.88;6.50;;;;;;;19.72;100.00;100751.56;4988782;28;20051;-74
2023/06/22 01:52:12;;;;;;;11.45;7.15;;;;;;;19.76;100.00;100748.75;4988693;28;20112;-76
2023/06/22 01:54:40;;;;;;;7.50;4.80;;;;;;;20.29;100.00;100822.47;4988983;28;20041;-75
2023/06/22 01:57:06;;;;;;;7.80;5.78;;;;;;;19.72;100.00;100708.94;4989412;28;20042;-72
2023/06/22 01:59:37;;;;;;;8.43;6.35;;;;;;;20.49;100.00;100853.78;4988891;28;20034;-73
2023/06/22 02:02:08;;;;;;;7.72;5.30;;;;;;;19.73;100.00;100747.97;4988493;28;20066;-74
2023/06/22 02:04:43;;;;;;;9.02;6.45;;;;;;;20.33;100.00;100858.75;4988347;28;20512;-72
2023/06/22 02:07:15;;;;;;;9.43;5.78;;;;;;;19.94;100.00;100789.88;4985463;28;20053;-73
2023/06/22 02:09:45;;;;;;;10.40;6.72;;;;;;;19.65;100.00;100739.34;4987315;28;20030;-73
2023/06/22 02:12:12;;;;;;;9.43;6.97;;;;;;;19.71;100.00;100748.00;4989129;28;20037;-72
2023/06/22 02:14:39;;;;;;;13.52;6.78;;;;;;;20.44;100.00;100848.63;4988245;28;20054;-73
2023/06/22 02:17:07;;;;;;;12.27;5.85;;;;;;;19.64;100.00;100758.88;4987931;28;20562;-72
2023/06/22 02:19:36;;;;;;;9.43;8.40;;;;;;;19.79;100.00;100758.41;4988564;28;20038;-74
2023/06/22 02:22:03;;;;;;;9.55;6.70;;;;;;;20.43;100.00;100868.19;4985882;28;20046;-73
2023/06/22 02:24:30;;;;;;;8.80;6.63;;;;;;;20.49;100.00;100877.78;5000548;28;20039;-73
2023/06/22 02:26:57;;;;;;;9.95;7.00;;;;;;;20.27;100.00;100852.75;4988564;28;20050;-75
2023/06/22 02:29:23;;;;;;;9.23;6.45;;;;;;;20.32;100.00;100874.78;4983165;28;20089;-74
2023/06/22 02:31:48;;;;;;;7.38;5.32;;;;;;;19.56;100.00;100754.66;4988241;28;20038;-73
2023/06/22 02:34:17;;;;;;;12.15;7.70;;;;;;;20.38;100.00;100891.47;4986334;28;20038;-74
2023/06/22 02:36:50;;;;;;;8.48;5.55;;;;;;;19.72;100.00;100786.16;4988624;28;20030;-73
2023/06/22 02:39:24;;;;;;;8.15;4.53;;;;;;;19.84;100.00;100814.19;4989190;28;20034;-73
2023/06/22 02:41:51;;;;;;;9.60;6.85;;;;;;;20.30;100.00;100912.19;4988342;28;20065;-74
2023/06/22 02:44:16;;;;;;;9.82;7.75;;;;;;;20.31;100.00;100907.72;4987888;28;20052;-73
2023/06/22 02:46:42;;;;;;;15.98;6.65;;;;;;;19.84;100.00;100839.03;4988233;28;20046;-73
2023/06/22 02:49:08;;;;;;;14.32;7.10;;;;;;;19.72;100.00;100803.00;4988100;28;20159;-74
2023/06/22 02:51:34;;;;;;;12.45;7.95;;;;;;;19.72;100.00;100797.69;4986184;28;20053;-75
2023/06/22 02:54:01;;;;;;;10.88;6.80;;;;;;;20.35;100.00;100904.03;4988500;28;20067;-74
2023/06/22 02:56:28;;;;;;;11.38;7.55;;;;;;;20.34;100.00;100908.47;4987539;28;20120;-73
2023/06/22 02:58:53;;;;;;;11.00;7.15;;;;;;;20.31;100.00;100905.91;4981582;28;20100;-73
2023/06/22 03:01:23;;;;;;;9.18;5.78;;;;;;;19.72;100.00;100797.69;4987691;28;20050;-76
2023/06/22 03:03:49;;;;;;;12.75;7.65;;;;;;;19.70;100.00;100788.88;4987860;28;20077;-74
2023/06/22 03:06:15;;;;;;;9.30;5.80;;;;;;;20.35;100.00;100904.03;4987785;28;20061;-73
2023/06/22 03:08:41;;;;;;;12.55;8.80;;;;;;;20.24;100.00;100891.91;4983238;28;20042;-72
2023/06/22 03:11:07;;;;;;;12.25;7.82;;;;;;;20.29;100.00;100896.22;4987169;28;20205;-74
2023/06/22 03:13:33;;;;;;;13.00;7.03;;;;;;;20.29;100.00;100918.41;4986306;28;20042;-74
2023/06/22 03:16:00;;;;;;;9.00;7.38;;;;;;;19.95;100.00;100836.03;4978441;28;20089;-73
2023/06/22 03:18:25;;;;;;;11.77;7.95;;;;;;;20.29;100.00;100897.09;4988044;28;20065;-71
2023/06/22 03:20:51;;;;;;;13.63;7.47;;;;;;;19.69;100.00;100797.78;4987097;28;20039;-72
2023/06/22 03:23:16;;;;;;;10.68;7.32;;;;;;;20.07;100.00;100851.63;4985961;28;20056;-73
2023/06/22 03:25:44;;;;;;;9.63;7.25;;;;;;;20.25;100.00;100876.78;4987190;28;20057;-75
2023/06/22 03:28:10;;;;;;;8.38;6.75;;;;;;;20.04;100.00;100849.03;4986093;28;20050;-74
2023/06/22 03:30:35;;;;;;;11.98;7.20;;;;;;;20.36;100.00;100892.44;4981590;28;20038;-74
2023/06/22 03:33:01;;;;;;;13.65;8.95;;;;;;;19.94;100.00;100819.16;4987419;28;20112;-74
2023/06/22 03:35:27;;;;;;;8.05;6.65;;;;;;;20.42;100.00;100890.44;4987070;28;20046;-74
2023/06/22 03:37:52;;;;;;;11.00;8.52;;;;;;;20.36;100.00;100881.78;4979967;28;20082;-73
2023/06/22 03:40:18;;;;;;;14.07;8.15;;;;;;;20.26;100.00;100859.88;4999762;28;20125;-73
2023/06/22 03:42:45;;;;;;;12.00;7.18;;;;;;;19.84;100.00;100812.41;4981447;28;20073;-74
2023/06/22 03:45:11;;;;;;;14.27;8.35;;;;;;;20.20;100.00;100876.06;4997560;28;20030;-72
2023/06/22 03:47:36;;;;;;;10.15;6.88;;;;;;;19.56;100.00;100781.28;4987101;28;20054;-72
2023/06/22 03:50:03;;;;;;;12.02;7.30;;;;;;;20.07;100.00;100890.72;4987209;28;20104;-72
2023/06/22 03:52:29;;;;;;;9.23;6.57;;;;;;;19.72;100.00;100802.16;4986476;28;20066;-72
2023/06/22 03:54:55;;;;;;;11.50;6.70;;;;;;;20.33;100.00;100877.41;4986235;28;20517;-73
2023/06/22 03:57:21;;;;;;;11.30;8.70;;;;;;;19.77;100.00;100794.88;4986680;28;20042;-73
2023/06/22 03:59:46;;;;;;;12.57;8.75;;;;;;;19.86;100.00;100812.38;4985868;28;20043;-72
2023/06/22 04:02:13;;;;;;;11.20;7.78;;;;;;;20.17;100.00;100825.53;4986120;28;20057;-72
2023/06/22 04:04:39;;;;;;;11.32;7.93;;;;;;;19.90;100.00;100769.59;4985769;28;20514;-72
2023/06/22 04:07:05;;;;;;;12.85;8.50;;;;;;;20.40;100.00;100830.09;4986179;28;20046;-72
2023/06/22 04:09:30;;;;;;;8.98;6.82;;;;;;;20.36;100.00;100808.00;4981603;28;20112;-73
2023/06/22 04:11:56;;;;;;;16.25;8.90;;;;;;;20.61;100.00;100845.41;4986746;28;20038;-72
2023/06/22 04:14:21;;;;;;;12.23;6.55;;;;;;;20.13;100.00;100799.91;4986131;28;20043;-72
2023/06/22 04:16:47;;;;;;;9.48;7.47;;;;;;;20.54;100.00;100837.63;4986151;28;20439;-72
2023/06/22 04:19:16;;;;;;;10.98;6.35;;;;;;;20.47;100.00;100802.31;4989292;28;20057;-75
2023/06/22 04:21:43;;;;;;;11.15;8.00;;;;;;;20.60;100.00;100793.00;4984121;28;20026;-74
2023/06/22 04:24:08;;;;;;;11.63;6.20;;;;;;;20.92;100.00;100844.31;4980446;28;20026;-73
2023/06/22 04:26:36;;;;;;;9.98;6.95;;;;;;;21.03;100.00;100868.81;4999791;28;20050;-73
2023/06/22 04:29:05;;;;;;;9.73;5.90;;;;;;;21.07;100.00;100853.53;4984909;28;20160;-72
2023/06/22 04:31:37;;;;;;;6.80;5.20;;;;;;;20.89;100.00;100795.53;4983429;28;20747;-74
2023/06/22 04:34:08;;;;;;;10.82;7.05;;;;;;;21.09;100.00;100803.66;4982103;28;20050;-74
2023/06/22 04:36:39;;;;;;;8.00;6.32;;;;;;;21.31;100.00;100826.91;4984275;28;20037;-73
2023/06/22 04:39:15;;;;;;;8.85;6.03;;;;;;;21.64;100.00;100855.00;4984903;28;20038;-71
2023/06/22 04:41:43;;;;;;;9.32;6.05;;;;;;;21.36;100.00;100788.41;4977806;28;20046;-74
2023/06/22 04:44:10;;;;;;;10.07;6.35;;;;;;;22.24;100.00;100903.44;4981834;28;20050;-73
2023/06/22 04:46:38;;;;;;;6.47;4.82;;;;;;;22.22;100.00;100883.00;4984146;28;20042;-74
2023/06/22 04:49:09;;;;;;;6.78;4.95;;;;;;;22.45;100.00;100915.06;4981910;28;20042;-74
2023/06/22 04:51:43;;;;;;;7.40;5.05;;;;;;;22.26;100.00;100868.59;4982826;28;20518;-72
2023/06/22 04:54:09;;;;;;;8.60;5.40;;;;;;;22.51;100.00;100876.47;4990698;28;20034;-72
2023/06/22 04:56:35;;;;;;;9.57;4.97;;;;;;;22.15;100.00;100799.53;4941487;28;1173117;-74
2023/06/22 04:59:02;;;;;;;11.32;4.60;;;;;;;22.24;100.00;100811.63;4986589;28;20125;-74
2023/06/22 05:01:30;;;;;;;6.90;5.03;;;;;;;22.84;100.00;100908.94;4985427;28;20506;-74
2023/06/22 05:03:56;;;;;;;6.45;4.47;;;;;;;22.72;100.00;100839.91;4984489;28;20128;-72
2023/06/22 05:06:25;;;;;;;6.82;4.97;;;;;;;22.80;100.00;100816.34;4986291;28;20050;-74
2023/06/22 05:08:59;;;;;;;8.70;5.35;;;;;;;23.61;100.00;100918.94;4983285;28;20046;-73
2023/06/22 05:11:28;;;;;;;4.32;3.08;;;;;;;23.65;100.00;100915.19;4985716;28;20054;-73
2023/06/22 05:13:54;;;;;;;6.35;3.88;;;;;;;23.83;100.00;100908.09;4978671;28;20043;-73
2023/06/22 05:16:24;;;;;;;6.28;3.45;;;;;;;24.30;100.00;100891.53;4985280;28;20108;-72
2023/06/22 05:18:54;;;;;;;8.43;5.07;;;;;;;24.95;100.00;100917.81;4985618;28;20116;-73
2023/06/22 05:21:24;;;;;;;6.55;4.60;;;;;;;23.94;100.00;100824.50;4986436;28;20038;-73
2023/06/22 05:23:50;;;;;;;8.23;4.78;;;;;;;24.70;100.00;100826.94;4984914;28;20120;-72
2023/06/22 05:26:15;;;;;;;3.92;3.13;;;;;;;24.98;100.00;100901.53;5018478;28;20141;-73
2023/06/22 05:28:41;;;;;;;7.22;3.97;;;;;;;25.46;100.00;100886.47;4978239;28;20050;-73
2023/06/22 05:31:07;;;;;;;7.00;3.78;;;;;;;25.13;100.00;100811.25;4984338;28;20049;-74
2023/06/22 05:33:33;;;;;;;4.57;3.08;;;;;;;25.58;100.00;100834.72;4985542;28;20493;-74
2023/06/22 05:35:58;;;;;;;6.65;3.45;;;;;;;26.11;100.00;100860.44;5014423;28;20046;-73
2023/06/22 05:38:24;;;;;;;6.78;3.88;;;;;;;26.63;100.00;100917.59;4966086;28;20049;-74
2023/06/22 05:40:49;;;;;;;6.40;3.28;;;;;;;27.04;100.00;100922.28;4976721;28;20047;-73
2023/06/22 05:43:15;;;;;;;6.78;4.00;;;;;;;26.03;100.00;100907.53;4985750;28;20060;-73
2023/06/22 05:45:41;;;;;;;6.05;3.22;;;;;;;26.72;100.00;100907.13;4985564;28;20109;-73
2023/06/22 05:48:06;;;;;;;4.60;3.50;;;;;;;26.84;100.00;100842.72;4985572;28;20030;-73
2023/06/22 05:50:31;;;;;;;3.72;2.60;;;;;;;27.60;100.00;100923.34;4985407;28;20105;-73
2023/06/22 05:52:57;;;;;;;5.82;3.17;;;;;;;27.56;100.00;100901.09;4986857;28;20046;-73
2023/06/22 05:55:22;;;;;;;5.30;3.30;;;;;;;27.58;100.00;100844.38;4987117;28;20089;-76
2023/06/22 05:57:48;;;;;;;3.88;2.60;;;;;;;27.97;100.00;100938.06;4988859;28;20042;-75
2023/06/22 06:00:14;;;;;;;5.13;3.13;;;;;;;27.50;100.00;100879.91;4984307;28;20027;-75
2023/06/22 06:02:43;;;;;;;5.72;3.08;;;;;;;26.69;100.00;100953.09;4984187;28;20138;-73
2023/06/22 06:05:11;;;;;;;7.32;3.30;;;;;;;27.27;100.00;100945.19;4988841;28;20049;-75
2023/06/22 06:07:37;;;;;;;5.43;2.65;;;;;;;26.88;100.00;100923.25;4987492;28;20518;-74
2023/06/22 06:10:04;;;;;;;4.38;2.17;;;;;;;27.35;100.00;100924.88;4987196;28;20108;-73
2023/06/22 06:12:30;;;;;;;9.35;2.95;;;;;;;27.74;100.00;100915.22;4986920;28;20173;-72
2023/06/22 06:14:56;;;;;;;3.78;2.53;;;;;;;27.76;100.00;100952.91;4986825;28;20042;-74
2023/06/22 06:17:22;;;;;;;6.70;4.32;;;;;;;27.90;100.00;100922.38;4988340;28;20404;-72
2023/06/22 06:19:47;;;;;;;3.40;2.70;;;;;;;27.26;100.00;100852.69;4988366;28;20054;-73
2023/06/22 06:22:13;;;;;;;5.95;3.90;;;;;;;27.49;100.00;100880.03;4987614;28;20081;-73
2023/06/22 06:24:38;;;;;;;6.45;4.43;;;;;;;27.04;100.00;100939.34;4990671;28;20081;-73
2023/06/22 06:27:04;;;;;;;8.40;4.97;;;;;;;27.50;100.00;100935.66;4988937;28;20042;-75
2023/06/22 06:29:30;;;;;;;6.88;3.78;;;;;;;27.58;100.00;100931.53;4988053;28;20170;-74
2023/06/22 06:31:56;;;;;;;4.57;2.67;;;;;;;27.46;100.00;100837.94;4988288;28;20189;-74
2023/06/22 06:34:22;;;;;;;5.25;3.33;;;;;;;27.88;100.00;100933.25;4988132;28;20049;-74
2023/06/22 06:36:47;;;;;;;5.45;2.55;;;;;;;27.51;100.00;100835.84;4988128;28;20502;-72
2023/06/22 06:39:13;;;;;;;5.45;3.38;;;;;;;28.10;100.00;100940.84;4988465;28;20050;-73
2023/06/22 06:41:38;;;;;;;5.25;3.17;;;;;;;27.31;100.00;100941.34;4987951;28;20093;-73
2023/06/22 06:44:04;;;;;;;9.18;4.97;;;;;;;27.42;100.00;100846.31;4985952;28;20422;-73
2023/06/22 06:46:30;;;;;;;4.72;3.17;;;;;;;28.07;100.00;100924.84;4987946;28;20038;-73
2023/06/22 06:48:55;;;;;;;4.72;3.17;;;;;;;28.28;100.00;100914.47;4987940;28;20803;-73
2023/06/22 06:51:22;;;;;;;5.63;2.95;;;;;;;28.30;100.00;100933.25;4988192;28;20741;-73
2023/06/22 06:53:48;;;;;;;4.40;3.30;;;;;;;27.77;100.00;100846.78;4987247;28;20423;-73
2023/06/22 06:56:13;;;;;;;5.00;2.85;;;;;;;27.91;100.00;100846.75;4987279;28;20059;-73
2023/06/22 06:58:45;;;;;;;12.60;4.35;;;;;;;27.78;96.78;100864.66;4987490;28;20038;-73
2023/06/22 07:01:12;;;;;;;3.80;2.63;;;;;;;28.26;87.82;100915.53;4985792;28;20046;-72
2023/06/22 07:03:38;;;;;;;4.55;2.85;;;;;;;27.89;96.53;100829.81;4986892;28;20030;-72
2023/06/22 07:06:03;;;;;;;4.00;2.88;;;;;;;27.79;89.40;100861.88;4988021;28;20691;-71
2023/06/22 07:08:29;;;;;;;4.18;2.67;;;;;;;28.06;99.62;100841.31;4984277;28;20034;-72
2023/06/22 07:10:55;;;;;;;10.50;4.43;;;;;;;27.11;99.14;100834.75;4987436;28;20070;-75
2023/06/22 07:13:20;;;;;;;3.90;3.22;;;;;;;27.74;95.26;100845.09;4987836;28;20088;-73
2023/06/22 07:15:46;;;;;;;4.65;3.03;;;;;;;28.48;94.42;100944.72;4989542;28;20038;-75
2023/06/22 07:18:12;;;;;;;4.72;3.17;;;;;;;28.05;100.00;100828.78;4988208;28;20030;-74
2023/06/22 07:20:39;;;;;;;4.15;2.38;;;;;;;28.16;100.00;100862.16;4986510;28;20046;-74
2023/06/22 07:23:05;;;;;;;4.13;2.55;;;;;;;27.87;96.29;100936.94;4983382;28;20117;-74
2023/06/22 07:25:30;;;;;;;4.82;2.75;;;;;;;27.74;100.00;100855.03;4986215;28;20057;-75
2023/06/22 07:28:04;;;;;;;4.35;2.75;;;;;;;26.92;95.53;100921.22;4978562;28;20051;-74
2023/06/22 07:30:30;;;;;;;4.90;3.25;;;;;;;27.87;100.00;100933.38;4981994;28;20414;-74
2023/06/22 07:32:57;;;;;;;4.05;2.70;;;;;;;28.00;99.73;100928.91;4982515;28;20141;-74
2023/06/22 07:35:23;;;;;;;5.65;3.92;;;;;;;28.06;87.41;100917.72;4984411;28;20137;-71
2023/06/22 07:37:49;;;;;;;7.22;4.43;;;;;;;27.99;87.65;100854.34;4977973;28;20062;-70
2023/06/22 07:40:14;;;;;;;5.90;3.50;;;;;;;28.64;81.31;100931.91;4982088;28;20054;-71
2023/06/22 07:42:40;;;;;;;14.20;2.53;;;;;;;27.58;85.43;100920.75;4981309;28;20053;-72
2023/06/22 07:45:08;;;;;;;4.30;2.53;;;;;;;26.88;88.83;100857.75;4982164;28;20034;-73
2023/06/22 07:47:35;;;;;;;3.80;2.72;;;;;;;26.79;91.35;100808.00;4979148;28;20077;-72
2023/06/22 07:50:01;;;;;;;4.35;2.55;;;;;;;26.90;89.20;100847.72;4982122;28;20047;-73
2023/06/22 07:52:28;;;;;;;4.18;2.50;;;;;;;27.17;89.44;100921.44;4977412;28;20089;-72
2023/06/22 07:54:53;;;;;;;4.97;3.58;;;;;;;27.43;91.99;100897.44;4978836;28;20053;-71
2023/06/22 07:57:20;;;;;;;5.50;3.22;;;;;;;27.76;83.03;100829.69;4977917;28;20055;-72
2023/06/22 07:59:45;;;;;;;6.45;4.00;;;;;;;27.77;78.94;100890.78;4986498;28;20054;-71
2023/06/22 08:02:11;;;;;;;4.90;3.22;;;;;;;27.23;86.54;100908.59;4980502;28;20054;-76
2023/06/22 08:04:37;;;;;;;4.38;2.60;;;;;;;27.46;84.52;100831.69;4983624;28;20054;-76
2023/06/22 08:07:03;;;;;;;4.32;2.40;;;;;;;27.65;81.22;100825.97;4979331;28;20781;-76
2023/06/22 08:09:30;;;;;;;3.67;2.72;;;;;;;27.99;78.26;100839.00;4977535;28;20050;-73
2023/06/22 08:11:56;;;;;;;5.15;2.97;;;;;;;28.37;77.91;100903.06;4986383;28;20046;-74
2023/06/22 08:14:23;;;;;;;4.57;2.20;;;;;;;28.05;77.50;100929.50;4981191;28;20058;-75
2023/06/22 08:16:50;;;;;;;7.05;2.28;;;;;;;28.23;79.62;100910.34;4974747;28;20058;-75
2023/06/22 08:19:16;;;;;;;6.57;2.80;;;;;;;27.38;83.12;100828.63;4987643;28;20050;-76
2023/06/22 08:21:41;;;;;;;4.25;3.10;;;;;;;29.00;79.86;100924.97;4981266;28;20041;-77
2023/06/22 08:24:07;;;;;;;5.57;3.45;;;;;;;28.17;79.84;100838.78;4981914;28;20034;-75
2023/06/22 08:26:35;;;;;;;4.57;3.25;;;;;;;28.25;73.83;100933.56;4980974;28;20053;-75
2023/06/22 08:29:02;;;;;;;8.77;3.78;;;;;;;28.23;75.10;100934.63;4978770;28;20085;-75
2023/06/22 08:31:27;;;;;;;5.22;3.63;;;;;;;28.42;74.33;100875.75;4977326;28;20120;-75
2023/06/22 08:33:53;;;;;;;3.78;2.17;;;;;;;28.17;75.62;100863.06;4985472;28;20566;-74
2023/06/22 08:36:18;;;;;;;4.80;3.20;;;;;;;28.29;75.91;100924.31;4985914;28;20061;-75
2023/06/22 08:38:44;;;;;;;4.13;2.42;;;;;;;28.93;72.10;100883.97;4985765;28;20054;-75
2023/06/22 08:41:10;;;;;;;4.50;2.63;;;;;;;29.33;63.54;100873.09;4983458;28;20498;-75
2023/06/22 08:43:36;;;;;;;4.88;3.13;;;;;;;28.64;77.38;100831.13;4985589;28;20046;-75
2023/06/22 08:46:02;;;;;;;5.05;3.28;;;;;;;29.91;75.92;100908.63;4982740;28;20600;-76
2023/06/22 08:48:28;;;;;;;4.50;2.90;;;;;;;29.73;62.10;100926.19;5016730;28;20034;-74
2023/06/22 08:50:53;;;;;;;4.93;2.55;;;;;;;29.20;63.21;100835.28;4983104;28;20121;-75
2023/06/22 08:53:19;;;;;;;5.28;3.03;;;;;;;29.21;72.68;100849.66;4979506;28;20502;-74
2023/06/22 08:55:45;;;;;;;6.38;2.38;;;;;;;29.81;68.97;100916.56;4979114;28;20062;-75
2023/06/22 08:58:11;;;;;;;3.22;2.30;;;;;;;29.27;68.75;100937.53;4985801;28;20118;-75
2023/06/22 09:00:37;;;;;;;3.80;2.25;;;;;;;29.52;64.31;100853.69;4980753;28;20069;-76
2023/06/22 09:03:02;;;;;;;4.68;3.00;;;;;;;30.54;65.88;100867.88;4984634;28;20121;-75
2023/06/22 09:05:28;;;;;;;2.72;2.35;;;;;;;30.43;60.69;100890.34;4980816;28;20039;-75
2023/06/22 09:07:58;;;;;;;3.47;2.83;;;;;;;29.88;62.48;100836.66;4977088;28;20054;-75
2023/06/22 09:10:24;;;;;;;2.55;1.65;;;;;;;30.49;61.26;100917.84;4985713;28;20136;-75
2023/06/22 09:12:51;;;;;;;4.03;2.78;;;;;;;30.33;59.23;100841.44;4977713;28;25303;-75
2023/06/22 09:15:16;;;;;;;3.67;2.53;;;;;;;29.49;61.92;100917.97;4981288;28;20035;-74
2023/06/22 09:17:42;;;;;;;5.28;2.53;;;;;;;29.11;66.74;100832.38;4979828;28;20049;-75
2023/06/22 09:20:10;;;;;;;7.63;3.85;;;;;;;30.18;58.79;100832.63;4983956;28;20050;-75
2023/06/22 09:22:36;;;;;;;4.03;3.20;;;;;;;30.16;59.04;100912.25;4980736;28;20038;-75
2023/06/22 09:25:03;;;;;;;3.30;2.65;;;;;;;30.08;60.01;100912.78;4980871;28;20061;-74
2023/06/22 09:27:28;;;;;;;4.35;3.05;;;;;;;31.17;57.28;100890.13;4985617;28;20505;-75
2023/06/22 09:29:54;;;;;;;3.65;2.85;;;;;;;31.04;57.92;100903.75;4987965;28;20031;-75
2023/06/22 09:32:19;;;;;;;5.47;2.40;;;;;;;30.00;61.14;100834.88;4989007;28;20049;-74
2023/06/22 09:34:45;;;;;;;6.47;3.08;;;;;;;29.95;63.13;100883.06;4988208;28;20053;-74
2023/06/22 09:37:10;;;;;;;8.77;4.03;;;;;;;30.36;64.86;100903.50;4987818;28;20133;-74
2023/06/22 09:39:36;;;;;;;13.55;3.85;;;;;;;30.01;63.76;100842.00;4988527;28;20034;-73
2023/06/22 09:42:02;;;;;;;5.13;3.42;;;;;;;29.96;58.58;100871.25;4989422;28;20380;-74
2023/06/22 09:44:28;;;;;;;5.28;3.28;;;;;;;30.53;62.24;100872.41;5019789;28;20053;-75
2023/06/22 09:46:53;;;;;;;3.45;3.08;;;;;;;30.72;59.88;100825.81;4988784;28;20108;-75
2023/06/22 09:49:19;;;;;;;4.85;3.15;;;;;;;31.61;54.28;100823.28;4981939;28;20050;-73
2023/06/22 09:51:44;;;;;;;5.53;3.33;;;;;;;32.26;53.86;100816.09;4987856;28;20471;-73
2023/06/22 09:54:10;;;;;;;4.40;2.67;;;;;;;31.92;52.53;100797.19;4985808;28;20031;-74
2023/06/22 09:56:37;;;;;;;4.65;2.88;;;;;;;32.53;51.15;100802.91;4988067;28;20089;-74
2023/06/22 09:59:03;;;;;;;4.15;2.97;;;;;;;33.15;50.48;100888.13;4988305;28;20042;-74
2023/06/22 10:01:28;;;;;;;5.13;3.47;;;;;;;32.96;50.24;100801.00;4985308;28;20050;-74
2023/06/22 10:03:55;;;;;;;4.38;2.95;;;;;;;32.76;51.78;100879.72;4988646;28;20132;-74
2023/06/22 10:06:21;;;;;;;5.20;3.50;;;;;;;32.73;52.95;100819.31;4989144;28;20045;-75
2023/06/22 10:08:48;;;;;;;3.38;2.72;;;;;;;32.40;51.27;100783.16;4984768;28;20165;-74
2023/06/22 10:11:13;;;;;;;6.20;3.50;;;;;;;30.90;53.57;100878.59;4986978;28;20232;-74
2023/06/22 10:13:39;;;;;;;4.72;2.85;;;;;;;30.69;53.49;100872.97;4988552;28;20509;-77
2023/06/22 10:16:04;;;;;;;7.28;3.10;;;;;;;31.40;53.69;100813.22;4986312;28;20084;-75
2023/06/22 10:18:30;;;;;;;5.07;3.40;;;;;;;31.90;48.74;100789.16;4987713;28;20034;-74
2023/06/22 10:20:56;;;;;;;4.75;3.60;;;;;;;31.86;49.65;100779.56;4984601;28;20786;-74
2023/06/22 10:23:22;;;;;;;4.75;3.65;;;;;;;31.00;52.32;100870.63;4988003;28;20046;-75
2023/06/22 10:25:49;;;;;;;4.82;3.35;;;;;;;31.12;55.50;100787.44;4988436;28;20038;-75
2023/06/22 10:28:15;;;;;;;5.85;3.33;;;;;;;32.89;49.39;100867.78;4986220;28;20046;-74
2023/06/22 10:30:41;;;;;;;4.05;2.53;;;;;;;30.44;52.04;100603.19;4988318;28;20045;-78
2023/06/22 10:33:11;;;;;;;10.18;4.00;;;;;;;32.17;53.22;100804.16;4987077;28;20550;-76
2023/06/22 10:35:40;;;;;;;4.53;3.20;;;;;;;32.11;52.35;100838.13;4986399;28;20116;-75
2023/06/22 10:38:06;;;;;;;5.57;3.58;;;;;;;32.73;53.24;100844.66;4986432;28;20073;-74
2023/06/22 10:40:32;;;;;;;5.10;3.20;;;;;;;31.21;52.21;100636.69;4987165;28;20125;-76
2023/06/22 10:42:57;;;;;;;3.60;2.80;;;;;;;31.87;53.04;100849.16;4987977;28;20137;-76
2023/06/22 10:45:23;;;;;;;5.07;3.65;;;;;;;30.34;58.39;100847.72;4988382;28;20022;-73
2023/06/22 10:47:48;;;;;;;5.20;3.08;;;;;;;32.24;52.42;100828.94;4986420;28;20042;-74
2023/06/22 10:50:15;;;;;;;4.13;2.72;;;;;;;32.80;49.95;100831.38;4987654;28;20562;-75
2023/06/22 10:52:44;;;;;;;6.40;3.55;;;;;;;31.89;49.65;100833.59;4986428;28;20066;-74
2023/06/22 10:55:10;;;;;;;3.90;3.00;;;;;;;32.53;49.83;100753.13;4987416;28;20529;-76
2023/06/22 10:57:39;;;;;;;8.95;3.97;;;;;;;32.49;51.74;100822.28;4986766;28;20050;-74
2023/06/22 11:00:08;;;;;;;4.82;3.42;;;;;;;32.93;48.93;100717.84;4986298;28;20039;-76
2023/06/22 11:02:34;;;;;;;6.95;3.88;;;;;;;32.67;50.62;100747.34;4985685;28;20084;-75
2023/06/22 11:05:00;;;;;;;5.82;4.65;;;;;;;31.33;53.64;100677.22;4984334;28;20050;-77
2023/06/22 11:07:28;;;;;;;5.68;3.67;;;;;;;31.63;59.22;100781.50;4987646;28;20049;-75
2023/06/22 11:09:54;;;;;;;4.72;3.45;;;;;;;31.38;55.63;100808.88;4983984;28;20062;-76
2023/06/22 11:12:20;;;;;;;4.65;3.28;;;;;;;31.36;50.74;100727.63;4986889;28;20137;-74
2023/06/22 11:14:45;;;;;;;5.20;3.75;;;;;;;32.20;48.59;100741.44;4985779;28;20109;-73
2023/06/22 11:17:11;;;;;;;4.68;3.40;;;;;;;31.15;50.56;100816.16;5000487;28;20049;-75